Time;durP1;ratioP1;P1;durP2;ratioP2;P2;SDS_P1;SDS_P2;PMS_P1;PMS_P2;Temp;Humidity;BMP_temperature;BMP_pressure;BME280_temperature;BME280_humidity;BME280_pressure;Samples;Min_cycle;Max_cycle;Signal;HPM_P1;HPM_P2
2022/11/30 00:01:46;;;;;;;56.90;33.70;;;;;;;;;;5097601;28;20190;-87
2022/11/30 00:04:14;;;;;;;65.95;37.30;;;;;;;;;;5098534;28;20202;-87
2022/11/30 00:06:42;;;;;;;59.42;34.38;;;;;;;;;;5097687;28;20290;-87
2022/11/30 00:09:09;;;;;;;68.78;36.10;;;4.60;99.90;;;;;;5097428;28;20312;-88
2022/11/30 00:11:37;;;;;;;62.83;37.88;;;4.70;99.90;;;;;;5097384;28;20202;-88
2022/11/30 00:14:05;;;;;;;60.45;37.22;;;;;;;;;;5097787;28;20213;-88
2022/11/30 00:16:35;;;;;;;59.50;36.03;;;4.60;99.90;;;;;;5096811;28;20309;-88
2022/11/30 00:19:02;;;;;;;61.13;34.72;;;4.60;99.90;;;;;;5096882;28;20314;-87
2022/11/30 00:21:29;;;;;;;64.78;37.38;;;4.50;99.90;;;;;;5097426;28;20214;-87
2022/11/30 00:23:56;;;;;;;67.30;37.58;;;4.60;99.90;;;;;;5097194;28;20209;-87
2022/11/30 00:26:23;;;;;;;62.97;38.55;;;4.60;99.90;;;;;;5096273;28;20305;-87
2022/11/30 00:28:50;;;;;;;65.90;37.38;;;4.60;99.90;;;;;;5096307;28;20233;-88
2022/11/30 00:31:19;;;;;;;68.28;37.10;;;4.40;99.90;;;;;;5096595;28;20205;-86
2022/11/30 00:33:46;;;;;;;69.50;37.60;;;4.80;99.90;;;;;;5113511;28;20200;-87
2022/11/30 00:36:15;;;;;;;65.38;38.70;;;4.80;99.90;;;;;;5116797;28;20228;-88
2022/11/30 00:38:43;;;;;;;63.20;35.55;;;4.80;99.90;;;;;;5096332;28;20253;-88
2022/11/30 00:41:09;;;;;;;61.58;34.88;;;4.60;99.90;;;;;;5096138;28;20292;-88
2022/11/30 00:43:39;;;;;;;62.40;35.60;;;4.60;99.90;;;;;;5099465;28;20751;-88
2022/11/30 00:46:07;;;;;;;79.97;37.20;;;4.90;99.90;;;;;;5098780;28;20226;-88
2022/11/30 00:48:36;;;;;;;67.18;38.67;;;4.30;99.90;;;;;;5113012;28;20246;-88
2022/11/30 00:51:03;;;;;;;62.22;36.45;;;4.70;99.90;;;;;;5113941;28;20289;-88
2022/11/30 00:53:31;;;;;;;70.50;38.85;;;;;;;;;;5099938;28;20288;-89
2022/11/30 00:55:58;;;;;;;63.10;37.97;;;4.80;99.90;;;;;;5098619;28;20308;-88
2022/11/30 00:58:25;;;;;;;61.53;36.20;;;;;;;;;;5100881;28;20304;-88
2022/11/30 01:00:52;;;;;;;71.30;38.70;;;4.60;99.90;;;;;;5100152;28;20293;-86
2022/11/30 01:03:19;;;;;;;69.63;39.33;;;4.40;99.90;;;;;;5098816;28;20585;-87
2022/11/30 01:05:47;;;;;;;77.57;39.45;;;5.10;99.90;;;;;;5098810;28;20233;-87
2022/11/30 01:08:14;;;;;;;67.15;38.08;;;4.50;99.90;;;;;;5098449;28;20204;-87
2022/11/30 01:10:44;;;;;;;66.78;37.40;;;4.40;99.90;;;;;;5098620;28;20621;-88
2022/11/30 01:13:12;;;;;;;75.93;37.75;;;4.40;99.90;;;;;;5119733;28;20205;-87
2022/11/30 01:15:41;;;;;;;69.70;37.33;;;4.40;99.90;;;;;;5119790;28;20245;-87
2022/11/30 01:18:08;;;;;;;81.45;41.10;;;4.30;99.90;;;;;;5119975;28;20229;-87
2022/11/30 01:20:35;;;;;;;65.78;34.97;;;4.20;99.90;;;;;;5120179;28;20216;-88
2022/11/30 01:23:03;;;;;;;63.88;38.30;;;4.70;99.90;;;;;;5118208;28;20539;-87
2022/11/30 01:25:30;;;;;;;70.05;39.53;;;4.50;99.90;;;;;;5118204;28;20269;-87
2022/11/30 01:27:57;;;;;;;70.35;38.88;;;4.50;99.90;;;;;;5118569;28;20204;-87
2022/11/30 01:30:24;;;;;;;63.65;35.25;;;4.50;99.90;;;;;;5118970;28;20194;-88
2022/11/30 01:32:51;;;;;;;70.68;38.85;;;4.50;99.90;;;;;;5121597;28;20185;-90
2022/11/30 01:35:17;;;;;;;70.18;39.22;;;4.60;99.90;;;;;;5121234;28;20186;-90
2022/11/30 01:37:44;;;;;;;64.97;39.10;;;4.20;99.90;;;;;;5121449;28;20182;-89
2022/11/30 01:40:13;;;;;;;68.25;36.72;;;4.40;99.90;;;;;;5121240;28;20214;-89
2022/11/30 01:42:46;;;;;;;63.83;36.00;;;4.40;99.90;;;;;;5121397;28;20200;-89
2022/11/30 01:45:13;;;;;;;62.13;35.67;;;4.70;99.90;;;;;;5116416;28;20246;-88
2022/11/30 01:47:43;;;;;;;63.40;36.53;;;4.40;99.90;;;;;;5108820;28;20281;-88
2022/11/30 01:50:14;;;;;;;69.25;37.90;;;4.40;99.90;;;;;;5103680;28;20282;-88
2022/11/30 01:52:44;;;;;;;68.85;38.85;;;4.40;99.90;;;;;;5098978;28;20289;-88
2022/11/30 01:55:18;;;;;;;66.13;37.17;;;4.50;99.90;;;;;;5102180;28;20273;-88
2022/11/30 01:57:49;;;;;;;59.67;36.92;;;4.70;99.90;;;;;;5104693;28;20665;-88
2022/11/30 02:00:18;;;;;;;61.40;36.60;;;4.10;99.90;;;;;;5106832;28;20221;-88
2022/11/30 02:02:52;;;;;;;73.68;37.13;;;4.10;99.90;;;;;;5107034;28;20206;-88
2022/11/30 02:05:21;;;;;;;64.18;38.72;;;4.20;99.90;;;;;;5119008;28;20185;-89
2022/11/30 02:07:48;;;;;;;72.03;39.05;;;4.20;99.90;;;;;;5118773;28;20232;-88
2022/11/30 02:10:18;;;;;;;69.20;37.78;;;5.10;99.90;;;;;;5110162;28;20205;-88
2022/11/30 02:13:10;;;;;;;61.88;39.30;;;4.20;99.90;;;;;;5103445;28;20214;-87
2022/11/30 02:15:49;;;;;;;68.13;36.60;;;4.00;99.90;;;;;;5104016;28;20289;-89
2022/11/30 02:18:22;;;;;;;61.13;36.88;;;4.40;99.90;;;;;;5103708;28;20190;-88
2022/11/30 02:20:57;;;;;;;63.75;34.22;;;4.70;99.90;;;;;;5100653;28;20281;-88
2022/11/30 02:23:42;;;;;;;59.40;36.15;;;4.40;99.90;;;;;;5102930;28;20252;-87
2022/11/30 02:26:29;;;;;;;64.35;36.63;;;4.30;99.90;;;;;;5102595;28;20222;-87
2022/11/30 02:29:11;;;;;;;65.90;37.03;;;4.30;99.90;;;;;;5102552;28;20221;-87
2022/11/30 02:31:43;;;;;;;63.83;37.60;;;4.30;99.90;;;;;;5101539;28;20259;-86
2022/11/30 02:34:13;;;;;;;61.15;36.67;;;4.10;99.90;;;;;;5102691;28;20221;-88
2022/11/30 02:36:41;;;;;;;64.82;36.67;;;4.70;99.90;;;;;;5103854;28;20221;-88
2022/11/30 02:39:10;;;;;;;70.03;35.47;;;4.30;99.90;;;;;;5102978;28;20248;-88
2022/11/30 02:41:38;;;;;;;70.90;37.78;;;4.40;99.90;;;;;;5103513;28;20186;-88
2022/11/30 02:44:08;;;;;;;65.53;37.25;;;4.30;99.90;;;;;;5099443;28;20197;-88
2022/11/30 02:46:47;;;;;;;70.43;38.45;;;4.30;99.90;;;;;;5098863;28;20225;-87
2022/11/30 02:49:21;;;;;;;73.85;38.38;;;4.30;99.90;;;;;;5099662;28;20225;-87
2022/11/30 02:51:49;;;;;;;69.00;38.92;;;4.40;99.90;;;;;;5097698;28;20193;-87
2022/11/30 02:54:17;;;;;;;66.75;35.22;;;4.40;99.90;;;;;;5102195;28;20252;-87
2022/11/30 02:56:47;;;;;;;67.95;38.40;;;4.40;99.90;;;;;;5107405;28;20237;-87
2022/11/30 02:59:15;;;;;;;62.83;35.90;;;4.20;99.90;;;;;;5105048;28;20253;-87
2022/11/30 03:01:43;;;;;;;66.80;37.55;;;4.60;99.90;;;;;;5101374;28;20222;-87
2022/11/30 03:04:10;;;;;;;65.18;35.88;;;4.40;99.90;;;;;;5100920;28;20558;-88
2022/11/30 03:06:37;;;;;;;69.25;37.67;;;;;;;;;;5100136;28;20283;-87
2022/11/30 03:09:05;;;;;;;62.38;37.03;;;4.10;99.90;;;;;;5118142;28;20210;-88
2022/11/30 03:11:32;;;;;;;68.60;37.20;;;4.40;99.90;;;;;;5110826;28;20257;-88
2022/11/30 03:13:59;;;;;;;67.10;38.97;;;4.40;99.90;;;;;;5107515;28;20235;-89
2022/11/30 03:16:27;;;;;;;67.45;35.70;;;4.60;99.90;;;;;;5101772;28;20786;-87
2022/11/30 03:18:54;;;;;;;66.68;36.63;;;3.90;99.90;;;;;;5101899;28;20707;-87
2022/11/30 03:21:20;;;;;;;61.80;36.25;;;4.30;99.90;;;;;;5102578;28;20241;-87
2022/11/30 03:23:47;;;;;;;64.97;36.03;;;4.20;99.90;;;;;;5107932;28;20273;-87
2022/11/30 03:26:14;;;;;;;64.60;37.35;;;4.20;99.90;;;;;;5107982;28;20252;-87
2022/11/30 03:28:41;;;;;;;60.88;35.53;;;3.90;99.90;;;;;;5106948;28;20660;-87
2022/11/30 03:31:11;;;;;;;60.08;35.03;;;4.40;99.90;;;;;;5111366;28;20288;-87
2022/11/30 03:33:40;;;;;;;59.90;34.78;;;4.30;99.90;;;;;;5110485;28;20233;-87
2022/11/30 03:36:08;;;;;;;65.88;38.45;;;4.30;99.90;;;;;;5105790;28;20623;-87
2022/11/30 03:38:36;;;;;;;66.78;34.88;;;4.20;99.90;;;;;;5107251;28;20696;-87
2022/11/30 03:41:06;;;;;;;72.97;35.40;;;4.30;99.90;;;;;;5103599;28;20295;-87
2022/11/30 03:43:33;;;;;;;68.13;38.05;;;4.40;99.90;;;;;;5118442;28;20186;-87
2022/11/30 03:46:00;;;;;;;66.03;37.20;;;4.40;99.90;;;;;;5108777;28;20225;-85
2022/11/30 03:48:27;;;;;;;67.25;37.63;;;4.30;99.90;;;;;;5111064;28;20201;-86
2022/11/30 03:50:56;;;;;;;69.88;37.08;;;4.60;99.90;;;;;;5113430;28;20202;-86
2022/11/30 03:53:25;;;;;;;69.43;37.40;;;5.00;99.90;;;;;;5112412;28;20205;-86
2022/11/30 03:55:54;;;;;;;66.70;35.97;;;4.30;99.90;;;;;;5113299;28;20253;-87
2022/11/30 03:58:21;;;;;;;69.78;38.17;;;4.70;99.90;;;;;;5101854;28;20205;-87
2022/11/30 04:00:48;;;;;;;65.50;37.33;;;4.10;99.90;;;;;;5099827;28;20268;-87
2022/11/30 04:03:15;;;;;;;66.10;38.13;;;4.40;99.90;;;;;;5098937;28;20587;-87
2022/11/30 04:05:43;;;;;;;68.25;36.70;;;4.30;99.90;;;;;;5095631;28;20308;-87
2022/11/30 04:08:11;;;;;;;62.72;37.33;;;4.30;99.90;;;;;;5096475;28;20316;-86
2022/11/30 04:10:38;;;;;;;66.22;38.42;;;4.20;99.90;;;;;;5097661;28;20201;-86
2022/11/30 04:13:05;;;;;;;70.75;39.55;;;4.20;99.90;;;;;;5096047;28;20205;-86
2022/11/30 04:15:32;;;;;;;68.07;36.03;;;4.30;99.90;;;;;;5101659;28;20313;-86
2022/11/30 04:17:59;;;;;;;64.47;36.08;;;3.80;99.90;;;;;;5107300;28;20327;-86
2022/11/30 04:20:26;;;;;;;74.55;39.15;;;4.00;99.90;;;;;;5109594;28;20224;-86
2022/11/30 04:22:53;;;;;;;68.25;38.00;;;4.20;99.90;;;;;;5104410;28;20285;-86
2022/11/30 04:25:21;;;;;;;66.20;38.30;;;4.40;99.90;;;;;;5104510;28;20288;-87
2022/11/30 04:27:48;;;;;;;69.60;37.50;;;4.40;99.90;;;;;;5101548;28;20205;-87
2022/11/30 04:30:16;;;;;;;69.32;39.22;;;4.20;99.90;;;;;;5103778;28;20222;-87
2022/11/30 04:32:43;;;;;;;68.30;36.17;;;4.30;99.90;;;;;;5118889;28;20206;-87
2022/11/30 04:35:10;;;;;;;72.60;36.63;;;4.00;99.90;;;;;;5115133;28;20229;-87
2022/11/30 04:37:37;;;;;;;62.83;37.97;;;4.10;99.90;;;;;;5113803;28;20208;-88
2022/11/30 04:40:05;;;;;;;69.20;36.63;;;4.20;99.90;;;;;;5109221;28;20258;-88
2022/11/30 04:42:34;;;;;;;65.20;39.58;;;4.10;99.90;;;;;;5101691;28;20209;-87
2022/11/30 04:45:01;;;;;;;65.45;36.60;;;4.30;99.90;;;;;;5101285;28;20237;-88
2022/11/30 04:47:28;;;;;;;71.22;37.03;;;;;;;;;;5107798;28;20214;-88
2022/11/30 04:49:55;;;;;;;68.05;40.00;;;4.20;99.90;;;;;;5122083;28;20174;-88
2022/11/30 04:52:22;;;;;;;64.00;37.25;;;4.40;99.90;;;;;;5121888;28;20182;-88
2022/11/30 04:54:49;;;;;;;79.53;41.10;;;4.20;99.90;;;;;;5121765;28;20241;-88
2022/11/30 04:57:17;;;;;;;63.15;37.88;;;4.10;99.90;;;;;;5122059;28;20210;-88
2022/11/30 04:59:45;;;;;;;69.07;37.60;;;4.10;99.90;;;;;;5121244;28;20286;-86
2022/11/30 05:02:12;;;;;;;73.73;39.80;;;;;;;;;;5115377;28;20488;-87
2022/11/30 05:04:39;;;;;;;73.18;39.78;;;4.10;99.90;;;;;;5106323;28;20479;-87
2022/11/30 05:07:06;;;;;;;73.00;38.92;;;4.00;99.90;;;;;;5106341;28;20268;-87
2022/11/30 05:09:33;;;;;;;66.93;37.97;;;3.80;99.90;;;;;;5106847;28;20281;-88
2022/11/30 05:12:00;;;;;;;72.88;39.55;;;4.00;99.90;;;;;;5120357;28;20190;-87
2022/11/30 05:14:27;;;;;;;66.43;34.85;;;4.10;99.90;;;;;;5107706;28;20247;-88
2022/11/30 05:16:56;;;;;;;78.72;41.90;;;3.80;99.90;;;;;;5101128;28;20254;-86
2022/11/30 05:19:23;;;;;;;65.70;36.78;;;4.30;99.90;;;;;;5099432;28;20217;-87
2022/11/30 05:21:52;;;;;;;70.60;36.08;;;4.10;99.90;;;;;;5101152;28;20213;-88
2022/11/30 05:24:21;;;;;;;61.47;36.25;;;4.10;99.90;;;;;;5100756;28;20229;-88
2022/11/30 05:26:48;;;;;;;69.28;39.50;;;4.20;99.90;;;;;;5100993;28;20440;-87
2022/11/30 05:29:15;;;;;;;72.47;39.05;;;4.20;99.90;;;;;;5111970;28;20192;-87
2022/11/30 05:31:42;;;;;;;72.15;39.83;;;3.80;99.90;;;;;;5117856;28;20297;-87
2022/11/30 05:34:11;;;;;;;68.95;38.30;;;3.70;99.90;;;;;;5099794;28;20224;-87
2022/11/30 05:36:37;;;;;;;61.65;37.72;;;3.70;99.90;;;;;;5100918;28;20261;-87
2022/11/30 05:39:04;;;;;;;66.20;38.80;;;4.20;99.90;;;;;;5100615;28;20273;-88
2022/11/30 05:41:31;;;;;;;71.13;39.30;;;4.40;99.90;;;;;;5099470;28;20731;-87
2022/11/30 05:43:58;;;;;;;69.40;38.33;;;4.10;99.90;;;;;;5109051;28;20209;-87
2022/11/30 05:46:25;;;;;;;66.95;38.35;;;4.20;99.90;;;;;;5119670;28;20226;-88
2022/11/30 05:48:52;;;;;;;75.22;38.80;;;4.10;99.90;;;;;;5119962;28;20246;-88
2022/11/30 05:51:21;;;;;;;66.07;37.00;;;4.00;99.90;;;;;;5103862;28;20280;-87
2022/11/30 05:53:48;;;;;;;67.18;38.13;;;4.00;99.90;;;;;;5098536;28;20316;-87
2022/11/30 05:56:18;;;;;;;61.78;35.92;;;4.10;99.90;;;;;;5098750;28;20253;-88
2022/11/30 05:58:45;;;;;;;73.88;40.47;;;4.10;99.90;;;;;;5100493;28;20202;-88
2022/11/30 06:01:18;;;;;;;67.55;38.25;;;4.10;99.90;;;;;;5099097;28;20253;-86
2022/11/30 06:03:45;;;;;;;65.13;35.75;;;4.10;99.90;;;;;;5099083;28;20269;-88
2022/11/30 06:06:12;;;;;;;71.95;40.20;;;4.10;99.90;;;;;;5098146;28;20445;-86
2022/11/30 06:08:40;;;;;;;65.25;38.22;;;3.90;99.90;;;;;;5097596;28;20316;-87
2022/11/30 06:11:07;;;;;;;64.95;37.75;;;4.10;99.90;;;;;;5098326;28;20636;-87
2022/11/30 06:13:34;;;;;;;76.25;39.55;;;4.10;99.90;;;;;;5097945;28;20289;-87
2022/11/30 06:16:02;;;;;;;60.47;36.83;;;4.20;99.90;;;;;;5098832;28;20226;-87
2022/11/30 06:18:30;;;;;;;62.17;36.33;;;4.40;99.90;;;;;;5099459;28;20232;-87
2022/11/30 06:21:01;;;;;;;61.38;36.30;;;4.10;99.90;;;;;;5098337;28;20229;-87
2022/11/30 06:23:29;;;;;;;71.28;38.53;;;4.30;99.90;;;;;;5098561;28;20189;-87
2022/11/30 06:25:57;;;;;;;79.55;39.28;;;;;;;;;;5099020;28;20249;-87
2022/11/30 06:28:24;;;;;;;69.18;36.85;;;;;;;;;;5110066;28;20217;-88
2022/11/30 06:30:52;;;;;;;67.65;35.75;;;;;;;;;;5113178;28;20205;-87
2022/11/30 06:33:22;;;;;;;64.38;34.65;;;3.80;99.90;;;;;;5113196;28;20253;-87
2022/11/30 06:35:50;;;;;;;62.97;34.22;;;4.20;99.90;;;;;;5117816;28;20289;-87
2022/11/30 06:38:16;;;;;;;62.35;32.45;;;4.10;99.90;;;;;;5117880;28;20210;-87
2022/11/30 06:40:43;;;;;;;69.55;35.65;;;4.30;99.90;;;;;;5115479;28;20285;-87
2022/11/30 06:43:17;;;;;;;64.63;35.53;;;4.20;99.90;;;;;;5112889;28;20212;-87
2022/11/30 06:45:50;;;;;;;62.28;35.33;;;4.20;99.90;;;;;;5114177;28;20216;-88
2022/11/30 06:48:17;;;;;;;69.05;37.50;;;;;;;;;;5114428;28;20212;-87
2022/11/30 06:50:45;;;;;;;63.05;37.95;;;;;;;;;;5112101;28;20212;-88
2022/11/30 07:12:49;;;;;;;;;;;;;;;;;;;;;
2022/11/30 07:18:44;;;;;;;75.75;36.58;;;;;;;;;;4852897;29;20214;-85
2022/11/30 07:47:23;;;;;;;53.15;31.17;;;;;;;;;;5004296;22;20240;-87
2022/11/30 07:49:51;;;;;;;59.72;35.05;;;;;;;;;;5109578;28;20189;-87
2022/11/30 07:52:18;;;;;;;68.30;36.10;;;4.50;99.90;;;;;;5119986;28;20232;-87
2022/11/30 07:54:44;;;;;;;67.20;36.03;;;4.80;99.90;;;;;;5119579;28;20178;-87
2022/11/30 07:57:11;;;;;;;67.80;38.53;;;4.30;99.90;;;;;;5116184;28;20278;-87
2022/11/30 07:59:38;;;;;;;59.53;35.20;;;4.50;99.90;;;;;;5101477;28;20281;-87
2022/11/30 08:02:05;;;;;;;59.33;35.38;;;4.70;99.90;;;;;;5089794;28;20218;-87
2022/11/30 08:04:34;;;;;;;70.43;38.33;;;4.40;99.90;;;;;;5085691;28;20217;-87
2022/11/30 08:07:01;;;;;;;62.40;34.97;;;;;;;;;;5100499;28;20214;-88
2022/11/30 08:09:28;;;;;;;60.60;34.55;;;4.40;99.90;;;;;;5102468;28;20195;-89
2022/11/30 08:11:55;;;;;;;63.88;36.67;;;4.60;99.90;;;;;;5102464;28;20236;-88
2022/11/30 08:14:22;;;;;;;62.30;34.15;;;4.70;99.90;;;;;;5102554;28;20178;-89
2022/11/30 08:16:49;;;;;;;62.67;34.90;;;4.70;99.90;;;;;;5102339;28;20231;-88
2022/11/30 08:19:16;;;;;;;65.10;34.20;;;4.30;99.90;;;;;;5102381;28;20214;-88
2022/11/30 08:21:44;;;;;;;62.35;35.00;;;4.40;99.90;;;;;;5088203;28;20300;-87
2022/11/30 08:24:12;;;;;;;63.80;36.92;;;4.40;99.90;;;;;;5084141;28;20207;-87
2022/11/30 08:26:39;;;;;;;57.42;33.47;;;4.20;99.90;;;;;;5082340;28;20203;-88
2022/11/30 08:29:06;;;;;;;65.93;34.00;;;4.70;99.90;;;;;;5082265;28;20207;-87
2022/11/30 08:31:35;;;;;;;62.50;36.33;;;4.40;99.90;;;;;;5084247;28;20222;-87
2022/11/30 08:34:05;;;;;;;70.93;37.95;;;4.60;99.90;;;;;;5085080;28;20248;-87
2022/11/30 08:36:32;;;;;;;66.45;35.15;;;4.30;99.90;;;;;;5085377;28;20210;-88
2022/11/30 08:39:03;;;;;;;66.18;35.97;;;4.50;96.60;;;;;;5085491;28;20229;-87
2022/11/30 08:41:31;;;;;;;61.70;33.80;;;;;;;;;;5084890;28;20206;-87
2022/11/30 08:43:58;;;;;;;75.22;38.15;;;4.60;99.90;;;;;;5086126;28;20240;-87
2022/11/30 08:46:25;;;;;;;66.22;36.20;;;;;;;;;;5084903;28;20237;-86
2022/11/30 08:48:53;;;;;;;58.95;33.03;;;4.60;99.90;;;;;;5087788;28;20215;-86
2022/11/30 08:51:21;;;;;;;60.53;34.15;;;4.30;99.90;;;;;;5086217;28;20215;-87
2022/11/30 08:53:49;;;;;;;58.75;34.90;;;4.60;86.90;;;;;;5085795;28;20210;-86
2022/11/30 08:56:21;;;;;;;72.30;36.85;;;4.60;34.30;;;;;;5087375;28;20230;-86
2022/11/30 08:58:49;;;;;;;60.08;35.47;;;;;;;;;;5091970;28;20222;-87
2022/11/30 09:01:18;;;;;;;62.35;33.72;;;4.90;99.90;;;;;;5091951;28;20246;-87
2022/11/30 09:03:46;;;;;;;63.88;34.03;;;4.60;41.40;;;;;;5093823;28;20264;-87
2022/11/30 09:06:15;;;;;;;60.55;35.95;;;4.50;90.60;;;;;;5098169;28;20203;-87
2022/11/30 09:08:44;;;;;;;64.93;34.50;;;5.70;99.90;;;;;;5100128;28;20215;-87
2022/11/30 09:11:15;;;;;;;55.42;34.40;;;5.10;56.10;;;;;;5099428;28;20205;-86
2022/11/30 09:13:44;;;;;;;58.15;35.88;;;4.60;27.70;;;;;;5090187;28;20226;-86
2022/11/30 09:16:11;;;;;;;61.80;35.75;;;4.50;99.90;;;;;;5085337;28;20210;-87
2022/11/30 09:18:39;;;;;;;63.53;35.58;;;5.20;6.00;;;;;;5084057;28;20245;-87
2022/11/30 09:21:08;;;;;;;57.15;33.08;;;4.80;1.00;;;;;;5084486;28;20309;-87
2022/11/30 09:23:35;;;;;;;68.93;36.67;;;4.60;14.80;;;;;;5086203;28;20260;-87
2022/11/30 09:26:04;;;;;;;53.70;32.75;;;4.90;62.20;;;;;;5086402;28;20742;-87
2022/11/30 09:28:32;;;;;;;63.05;32.25;;;;;;;;;;5086881;28;20613;-87
2022/11/30 09:31:02;;;;;;;56.15;32.35;;;4.70;50.10;;;;;;5085501;28;20627;-87
2022/11/30 09:33:30;;;;;;;59.17;34.45;;;4.80;11.70;;;;;;5085534;28;20191;-87
2022/11/30 09:35:57;;;;;;;55.05;32.30;;;5.00;25.70;;;;;;5086005;28;20199;-87
2022/11/30 09:38:24;;;;;;;58.05;34.03;;;4.90;16.70;;;;;;5084888;28;20226;-87
2022/11/30 09:40:56;;;;;;;56.65;32.30;;;4.70;1.00;;;;;;5084049;28;20246;-87
2022/11/30 09:43:35;;;;;;;61.33;34.45;;;5.00;59.70;;;;;;5084129;28;20629;-86
2022/11/30 09:46:07;;;;;;;61.05;33.90;;;4.90;1.00;;;;;;5084437;28;20599;-87
2022/11/30 09:48:50;;;;;;;55.75;33.67;;;4.90;1.00;;;;;;5084569;28;20226;-87
2022/11/30 09:51:20;;;;;;;57.47;31.70;;;5.20;1.00;;;;;;5084299;28;20237;-87
2022/11/30 09:53:53;;;;;;;55.15;33.55;;;5.00;1.00;;;;;;5083622;28;20270;-87
2022/11/30 09:56:25;;;;;;;52.15;31.30;;;5.20;1.00;;;;;;5093387;28;20187;-86
2022/11/30 09:58:56;;;;;;;61.90;32.65;;;5.10;1.00;;;;;;5097540;28;20222;-86
2022/11/30 10:01:27;;;;;;;61.55;33.20;;;5.00;1.00;;;;;;5097915;28;20205;-88
2022/11/30 10:03:56;;;;;;;53.58;32.63;;;5.10;1.00;;;;;;5097982;28;20203;-86
2022/11/30 10:06:34;;;;;;;56.78;33.38;;;5.10;1.00;;;;;;5096486;28;20233;-87
2022/11/30 10:09:16;;;;;;;49.78;30.52;;;5.10;1.00;;;;;;5091808;28;20284;-87
2022/11/30 10:11:56;;;;;;;52.60;32.20;;;4.90;1.00;;;;;;5098785;28;20182;-86
2022/11/30 10:14:47;;;;;;;56.80;31.77;;;5.20;1.00;;;;;;5097781;28;20198;-86
2022/11/30 10:17:42;;;;;;;59.22;31.25;;;5.20;1.00;;;;;;5087864;28;20289;-87
2022/11/30 10:20:28;;;;;;;60.25;31.42;;;5.30;1.00;;;;;;5086522;28;20186;-88
2022/11/30 10:23:12;;;;;;;52.78;33.33;;;5.50;1.00;;;;;;5086665;28;20195;-87
2022/11/30 10:25:50;;;;;;;64.65;35.55;;;5.50;1.00;;;;;;5084693;28;20198;-87
2022/11/30 10:28:22;;;;;;;55.80;35.15;;;5.50;1.00;;;;;;5085281;28;20222;-87
2022/11/30 10:30:50;;;;;;;58.20;33.72;;;;;;;;;;5086242;28;20214;-87
2022/11/30 10:33:33;;;;;;;53.25;34.20;;;5.50;1.00;;;;;;5086951;28;20198;-87
2022/11/30 10:36:06;;;;;;;61.30;35.33;;;5.50;1.00;;;;;;5087146;28;20194;-87
2022/11/30 10:38:41;;;;;;;54.45;33.88;;;5.40;1.00;;;;;;5086908;28;20277;-87
2022/11/30 10:41:15;;;;;;;66.15;33.70;;;5.40;1.00;;;;;;5081945;28;20221;-87
2022/11/30 10:43:47;;;;;;;62.90;37.05;;;5.50;1.00;;;;;;5081471;28;20604;-87
2022/11/30 10:46:22;;;;;;;53.88;32.13;;;5.50;1.00;;;;;;5080004;28;20222;-87
2022/11/30 10:48:59;;;;;;;50.90;31.65;;;5.50;1.00;;;;;;5079094;28;20234;-86
2022/11/30 10:51:27;;;;;;;70.18;36.78;;;5.60;1.00;;;;;;5080447;28;20182;-87
2022/11/30 10:53:55;;;;;;;52.30;33.15;;;;;;;;;;5079464;28;20198;-87
2022/11/30 10:56:22;;;;;;;57.65;33.35;;;;;;;;;;5080927;28;20210;-86
2022/11/30 10:58:59;;;;;;;54.63;32.35;;;5.50;1.00;;;;;;5079725;28;20226;-87
2022/11/30 11:01:33;;;;;;;57.28;34.08;;;5.50;1.00;;;;;;5079513;28;20305;-87
2022/11/30 11:04:16;;;;;;;58.33;33.42;;;5.60;1.00;;;;;;5078881;28;20240;-87
2022/11/30 11:06:47;;;;;;;53.92;32.75;;;5.60;99.90;;;;;;5079062;28;20255;-88
2022/11/30 11:09:31;;;;;;;58.78;32.72;;;5.90;1.00;;;;;;5079286;28;20217;-87
2022/11/30 11:12:01;;;;;;;60.33;32.60;;;5.70;99.90;;;;;;5079029;28;20201;-87
2022/11/30 11:14:29;;;;;;;51.55;35.08;;;5.90;1.00;;;;;;5078578;28;20206;-87
2022/11/30 11:16:59;;;;;;;64.78;33.33;;;5.80;1.00;;;;;;5078549;28;20229;-87
2022/11/30 11:19:39;;;;;;;60.20;33.42;;;5.80;1.00;;;;;;5078999;28;20297;-88
2022/11/30 11:22:13;;;;;;;57.97;33.65;;;5.70;99.90;;;;;;5077920;28;20253;-87
2022/11/30 11:24:40;;;;;;;64.25;35.72;;;5.40;1.00;;;;;;5087648;28;20190;-87
2022/11/30 11:27:19;;;;;;;60.80;34.80;;;5.80;1.00;;;;;;5094179;28;20210;-87
2022/11/30 11:29:46;;;;;;;59.05;33.13;;;;;;;;;;5097021;28;20194;-87
2022/11/30 11:32:39;;;;;;;68.00;35.10;;;5.80;1.00;;;;;;5083989;28;20202;-87
2022/11/30 11:35:34;;;;;;;62.65;35.10;;;5.70;1.00;;;;;;5093165;28;20213;-87
2022/11/30 11:38:02;;;;;;;66.75;35.47;;;;;;;;;;5090962;28;20229;-88
2022/11/30 11:40:30;;;;;;;57.63;34.97;;;;;;;;;;5090894;28;20214;-87
2022/11/30 11:42:59;;;;;;;59.75;34.90;;;;;;;;;;5088439;28;20228;-87
2022/11/30 11:45:29;;;;;;;61.00;35.38;;;5.70;1.00;;;;;;5095363;28;20233;-87
2022/11/30 11:47:59;;;;;;;68.03;35.47;;;5.70;1.00;;;;;;5097954;28;20214;-88
2022/11/30 11:50:32;;;;;;;52.75;33.42;;;5.70;1.00;;;;;;5096563;28;20244;-87
2022/11/30 11:53:23;;;;;;;55.92;34.65;;;5.80;1.00;;;;;;5097528;28;20198;-88
2022/11/30 11:55:59;;;;;;;64.97;37.47;;;5.80;1.00;;;;;;5098517;28;20207;-88
2022/11/30 11:58:48;;;;;;;71.70;36.47;;;5.80;1.00;;;;;;5098250;28;20229;-89
2022/11/30 12:01:45;;;;;;;58.92;35.47;;;5.80;1.00;;;;;;5095710;28;20210;-87
2022/11/30 12:04:32;;;;;;;53.50;32.33;;;5.70;1.00;;;;;;5090908;28;20202;-87
2022/11/30 12:12:35;;;;;;;69.78;35.72;;;;;;;;;;5097760;28;20217;-88
2022/11/30 12:15:17;;;;;;;62.00;36.72;;;5.70;1.00;;;;;;5098129;28;20199;-90
2022/11/30 12:17:53;;;;;;;62.72;38.30;;;5.70;1.00;;;;;;5098302;28;20249;-88
2022/11/30 12:20:54;;;;;;;62.63;36.85;;;5.70;1.00;;;;;;5098170;28;20186;-89
2022/11/30 12:23:39;;;;;;;62.58;35.58;;;;;;;;;;5097690;28;20265;-89
2022/11/30 12:29:41;;;;;;;67.13;39.63;;;5.70;1.00;;;;;;5085204;28;20210;-87
2022/11/30 12:32:23;;;;;;;73.95;37.42;;;5.70;1.00;;;;;;5097758;28;20167;-87
2022/11/30 12:35:03;;;;;;;62.75;38.70;;;5.80;1.00;;;;;;5082482;28;20286;-87
2022/11/30 12:37:37;;;;;;;66.95;39.95;;;5.50;1.00;;;;;;5080245;28;20237;-87
2022/11/30 12:40:25;;;;;;;74.97;40.50;;;5.70;1.00;;;;;;5083424;28;20198;-87
2022/11/30 12:43:01;;;;;;;73.82;40.63;;;5.70;1.00;;;;;;5082854;28;20202;-87
2022/11/30 12:45:36;;;;;;;71.30;39.20;;;5.70;1.00;;;;;;5082504;28;20198;-86
2022/11/30 12:48:13;;;;;;;69.70;41.58;;;5.70;1.00;;;;;;5082309;28;20320;-87
2022/11/30 12:50:58;;;;;;;87.60;42.63;;;5.60;1.00;;;;;;5081585;28;20225;-87
2022/11/30 12:53:32;;;;;;;77.80;40.35;;;5.60;1.00;;;;;;5081715;28;20242;-87
2022/11/30 12:56:12;;;;;;;72.45;40.83;;;5.70;1.00;;;;;;5080446;28;20206;-87
2022/11/30 12:58:50;;;;;;;73.28;41.95;;;5.70;1.00;;;;;;5081275;28;20254;-87
2022/11/30 13:01:31;;;;;;;77.63;42.17;;;5.70;1.00;;;;;;5080807;28;20209;-87
2022/11/30 13:04:08;;;;;;;69.05;39.80;;;5.50;1.00;;;;;;5083164;28;20202;-87
2022/11/30 13:06:40;;;;;;;78.20;41.78;;;5.50;1.00;;;;;;5089211;28;20194;-87
2022/11/30 13:09:15;;;;;;;81.78;40.28;;;5.50;1.00;;;;;;5095007;28;20202;-88
2022/11/30 13:11:54;;;;;;;77.43;44.03;;;5.40;1.00;;;;;;5086440;28;20197;-86
2022/11/30 13:14:28;;;;;;;82.97;42.17;;;5.30;1.00;;;;;;5086997;28;20218;-87
2022/11/30 13:17:15;;;;;;;75.93;41.28;;;5.20;1.00;;;;;;5087367;28;20250;-87
2022/11/30 13:19:57;;;;;;;74.45;40.78;;;5.20;1.00;;;;;;5084968;28;20221;-86
2022/11/30 13:22:36;;;;;;;75.00;40.30;;;5.20;1.00;;;;;;5086512;28;20245;-87
2022/11/30 13:25:20;;;;;;;67.53;39.20;;;5.00;1.00;;;;;;5096415;28;20206;-87
2022/11/30 13:27:52;;;;;;;80.20;42.08;;;4.90;1.00;;;;;;5086238;28;20305;-87
2022/11/30 13:30:37;;;;;;;80.80;41.13;;;4.90;1.00;;;;;;5084758;28;20226;-87
2022/11/30 13:33:38;;;;;;;73.00;39.97;;;4.80;1.00;;;;;;5083668;28;20252;-87
2022/11/30 13:36:06;;;;;;;73.47;41.95;;;;;;;;;;5083083;28;20202;-87
2022/11/30 13:38:34;;;;;;;75.25;40.90;;;;;;;;;;5090792;28;20222;-87
2022/11/30 13:41:03;;;;;;;77.22;40.25;;;4.40;1.00;;;;;;5085635;28;20229;-87
2022/11/30 13:43:38;;;;;;;82.97;41.33;;;4.40;1.00;;;;;;5089696;28;20209;-86
2022/11/30 13:46:16;;;;;;;77.75;42.30;;;4.30;1.00;;;;;;5092491;28;20284;-88
2022/11/30 13:48:46;;;;;;;82.07;41.50;;;;;;;;;;5094297;28;20238;-87
2022/11/30 13:51:14;;;;;;;78.72;40.47;;;;;;;;;;5093716;28;20225;-86
2022/11/30 13:53:45;;;;;;;82.95;38.15;;;4.20;99.90;;;;;;5092626;28;20301;-86
2022/11/30 13:56:32;;;;;;;84.43;43.08;;;3.90;52.50;;;;;;5092851;28;20195;-86
2022/11/30 13:59:45;;;;;;;82.15;42.40;;;4.00;99.90;;;;;;5089043;28;20301;-87
2022/11/30 14:02:58;;;;;;;79.68;42.28;;;3.60;99.90;;;;;;5085457;28;20202;-87
2022/11/30 14:05:37;;;;;;;79.03;41.03;;;3.40;99.90;;;;;;5083899;28;20529;-87
2022/11/30 14:08:16;;;;;;;91.97;41.95;;;3.30;99.90;;;;;;5083222;28;20222;-88
2022/11/30 14:10:45;;;;;;;83.68;39.53;;;3.20;99.90;;;;;;5083042;28;20580;-87